Roanoke — WDD9656 — position and weather

sailwx.info

Track history (hours):
 
Tides and Currents Weather Stations Pressure Air Temp Water Temp Dewpoint Dewpoint Depression Visibility Wind Speed Wind Dir Waves Ship Positions

Roanoke

More information available from US FCC via Universal Licensing System and Coast Guard Vessel Documentation Center.

Last reported at 2014-Jul-23 07:13 UTC. Time now 2014-Jul-23 14:01 UTC.
Position N 39°21' W 075°26'.

Length 32 m; draft 13 m.

Type: Towing. MMSI: 367314510.

Date/timePositionNaut miles runAvg speedWind from/ knotsBaromVisibWave heightAir tempDewpointWater temp
2014-Jul-23 07:13N 39°21' W 075°26'42 5.5
2014-Jul-22 23:33N 39°14' W 076°20'7 7.2
2014-Jul-22 22:33N 39°11' W 076°28'6 5.8
2014-Jul-22 21:32N 39°15' W 076°34'0 0.0
2014-Jul-22 20:32N 39°15' W 076°34'0 0.0
2014-Jul-22 19:33N 39°15' W 076°34'0 0.0
2014-Jul-22 18:31N 39°15' W 076°34'0 0.0
2014-Jul-22 17:31N 39°15' W 076°34'0 0.0
2014-Jul-22 16:29N 39°15' W 076°34'0 0.0
2014-Jul-22 15:33N 39°15' W 076°34'0 0.0
2014-Jul-22 14:33N 39°15' W 076°34'0 0.0
2014-Jul-22 13:31N 39°15' W 076°34'0 0.0
2014-Jul-22 12:20N 39°15' W 076°34'0 0.3
2014-Jul-22 11:33N 39°15' W 076°34'1 0.5
2014-Jul-22 10:32N 39°15' W 076°34'0 0.0
2014-Jul-22 09:32N 39°15' W 076°34'0 0.0
2014-Jul-22 07:16N 39°15' W 076°34'0 0.0
2014-Jul-22 05:29N 39°15' W 076°34'0 0.0
2014-Jul-22 04:30N 39°15' W 076°34'0 0.0
2014-Jul-22 03:24N 39°15' W 076°34'0 0.0
2014-Jul-22 02:22N 39°15' W 076°34'0 0.0
2014-Jul-21 22:22N 39°15' W 076°34'0 0.0
2014-Jul-21 21:13N 39°15' W 076°34'0 0.0
2014-Jul-21 20:17N 39°15' W 076°34'0 0.0
2014-Jul-21 19:18N 39°15' W 076°34'0 0.0
2014-Jul-21 17:31N 39°15' W 076°34'0 0.0
2014-Jul-21 16:32N 39°15' W 076°34'0 0.0
2014-Jul-21 15:29N 39°15' W 076°34'0 0.0
2014-Jul-21 14:33N 39°15' W 076°34'0 0.0
2014-Jul-21 13:31N 39°15' W 076°34'0 0.0
2014-Jul-21 12:31N 39°15' W 076°34'1 1.1
2014-Jul-21 11:32N 39°15' W 076°33'0 0.0
2014-Jul-21 10:33N 39°15' W 076°33'0 0.0
2014-Jul-21 09:31N 39°15' W 076°33'0 0.0
2014-Jul-21 08:32N 39°15' W 076°33'0 0.0
2014-Jul-21 07:32N 39°15' W 076°33'0 0.0
2014-Jul-21 06:33N 39°15' W 076°33'0 0.0
2014-Jul-21 05:33N 39°15' W 076°33'0 0.0
2014-Jul-21 04:31N 39°15' W 076°33'0 0.0
2014-Jul-21 03:32N 39°15' W 076°33'0 0.0
2014-Jul-21 02:30N 39°15' W 076°33'0 0.0
2014-Jul-21 01:33N 39°15' W 076°33'0 0.0
2014-Jul-21 00:31N 39°15' W 076°33'0 0.0
2014-Jul-20 23:31N 39°15' W 076°33'0 0.0
2014-Jul-20 22:32N 39°15' W 076°33'0 0.0
2014-Jul-20 21:33N 39°15' W 076°33'0 0.0
2014-Jul-20 20:33N 39°15' W 076°33'0 0.0
2014-Jul-20 19:31N 39°15' W 076°33'0 0.0
2014-Jul-20 18:32N 39°15' W 076°33'0 0.0
2014-Jul-20 17:32N 39°15' W 076°33'0 0.0
2014-Jul-20 16:33N 39°15' W 076°33'0 0.0
2014-Jul-20 15:31N 39°15' W 076°33'0 0.0
2014-Jul-20 14:32N 39°15' W 076°33'0 0.0
2014-Jul-20 13:32N 39°15' W 076°33'0 0.0
2014-Jul-20 12:30N 39°15' W 076°33'0 0.0
2014-Jul-20 11:28N 39°15' W 076°33'0 0.0
2014-Jul-20 10:31N 39°15' W 076°33'0 0.0
2014-Jul-20 09:32N 39°15' W 076°33'0 0.0
2014-Jul-20 08:33N 39°15' W 076°33'0 0.0
2014-Jul-20 07:33N 39°15' W 076°33'0 0.0
2014-Jul-20 06:31N 39°15' W 076°33'0 0.0
2014-Jul-20 05:32N 39°15' W 076°33'0 0.0
2014-Jul-20 04:32N 39°15' W 076°33'0 0.0
2014-Jul-20 03:33N 39°15' W 076°33'0 0.0
2014-Jul-20 02:34N 39°15' W 076°33'0 0.0
2014-Jul-20 01:32N 39°15' W 076°33'0 0.0
2014-Jul-20 00:32N 39°15' W 076°33'0 0.4
2014-Jul-19 23:33N 39°15' W 076°33'8 8.0
2014-Jul-19 22:33N 39°11' W 076°24'3 0.0
2014-Jul-17 19:23N 39°13' W 076°22'6 7.3
2014-Jul-17 18:33N 39°12' W 076°29'5 5.3
2014-Jul-17 17:32N 39°15' W 076°34'0 0.0
2014-Jul-17 16:33N 39°15' W 076°34'0 0.0
2014-Jul-17 15:31N 39°15' W 076°34'0 0.0
2014-Jul-17 14:31N 39°15' W 076°34'0 0.0
2014-Jul-17 13:32N 39°15' W 076°34'0 0.0
2014-Jul-17 12:33N 39°15' W 076°34'0 0.0
2014-Jul-17 11:33N 39°15' W 076°34'0 0.0
2014-Jul-17 10:31N 39°15' W 076°34'0 0.0
2014-Jul-17 09:32N 39°15' W 076°34'0 0.0
2014-Jul-17 08:32N 39°15' W 076°34'1 0.6
2014-Jul-17 07:34N 39°15' W 076°34'0 0.4
2014-Jul-17 06:32N 39°15' W 076°33'0 0.0
2014-Jul-17 05:32N 39°15' W 076°33'0 0.0
2014-Jul-17 04:33N 39°15' W 076°33'0 0.0
2014-Jul-17 03:31N 39°15' W 076°33'0 0.0
2014-Jul-17 02:31N 39°15' W 076°33'0 0.0
2014-Jul-17 01:32N 39°15' W 076°33'0 0.0
2014-Jul-17 00:33N 39°15' W 076°33'0 0.0
2014-Jul-16 23:33N 39°15' W 076°33'1 1.1
2014-Jul-16 22:33N 39°15' W 076°34'0 0.0
2014-Jul-16 21:21N 39°15' W 076°34'0 0.0
2014-Jul-16 20:16N 39°15' W 076°34'0 0.1
2014-Jul-16 19:33N 39°15' W 076°34'0 0.0
2014-Jul-16 18:31N 39°15' W 076°34'0 0.0
2014-Jul-16 17:28N 39°15' W 076°34'1 0.3
2014-Jul-16 13:31N 39°15' W 076°33'7 7.4
2014-Jul-16 12:34N 39°11' W 076°26'66 8.0
2014-Jul-16 04:19N 39°51' W 075°18'23 1.2
2014-Jul-15 09:25N 40°04' W 074°54'83 3.5
2014-Jul-14 10:08N 39°12' W 076°16'13 8.0
2014-Jul-14 08:33N 38°60' W 076°23'83 7.3
2014-Jul-13 21:14N 37°38' W 076°10'28 2.6
2014-Jul-13 10:32N 37°14' W 076°29'1 0.3
2014-Jul-13 07:31N 37°14' W 076°28'  
Track history (hours):
 
Tides and Currents Weather Stations Pressure Air Temp Water Temp Dewpoint Dewpoint Depression Visibility Wind Speed Wind Dir Waves Ship Positions

Roanoke

More information available from US FCC via Universal Licensing System and Coast Guard Vessel Documentation Center.

Last reported at 2014-Jul-23 07:13 UTC. Time now 2014-Jul-23 14:01 UTC.
Position N 39°21' W 075°26'.

Length 32 m; draft 13 m.

Type: Towing. MMSI: 367314510.

Date/timePositionNaut miles runAvg speedWind from/ knotsBaromVisibWave heightAir tempDewpointWater temp
2014-Jul-23 07:13N 39°21' W 075°26'42 5.5
2014-Jul-22 23:33N 39°14' W 076°20'7 7.2
2014-Jul-22 22:33N 39°11' W 076°28'6 5.8
2014-Jul-22 21:32N 39°15' W 076°34'0 0.0
2014-Jul-22 20:32N 39°15' W 076°34'0 0.0
2014-Jul-22 19:33N 39°15' W 076°34'0 0.0
2014-Jul-22 18:31N 39°15' W 076°34'0 0.0
2014-Jul-22 17:31N 39°15' W 076°34'0 0.0
2014-Jul-22 16:29N 39°15' W 076°34'0 0.0
2014-Jul-22 15:33N 39°15' W 076°34'0 0.0
2014-Jul-22 14:33N 39°15' W 076°34'0 0.0
2014-Jul-22 13:31N 39°15' W 076°34'0 0.0
2014-Jul-22 12:20N 39°15' W 076°34'0 0.3
2014-Jul-22 11:33N 39°15' W 076°34'1 0.5
2014-Jul-22 10:32N 39°15' W 076°34'0 0.0
2014-Jul-22 09:32N 39°15' W 076°34'0 0.0
2014-Jul-22 07:16N 39°15' W 076°34'0 0.0
2014-Jul-22 05:29N 39°15' W 076°34'0 0.0
2014-Jul-22 04:30N 39°15' W 076°34'0 0.0
2014-Jul-22 03:24N 39°15' W 076°34'0 0.0
2014-Jul-22 02:22N 39°15' W 076°34'0 0.0
2014-Jul-21 22:22N 39°15' W 076°34'0 0.0
2014-Jul-21 21:13N 39°15' W 076°34'0 0.0
2014-Jul-21 20:17N 39°15' W 076°34'0 0.0
2014-Jul-21 19:18N 39°15' W 076°34'0 0.0
2014-Jul-21 17:31N 39°15' W 076°34'0 0.0
2014-Jul-21 16:32N 39°15' W 076°34'0 0.0
2014-Jul-21 15:29N 39°15' W 076°34'0 0.0
2014-Jul-21 14:33N 39°15' W 076°34'0 0.0
2014-Jul-21 13:31N 39°15' W 076°34'0 0.0
2014-Jul-21 12:31N 39°15' W 076°34'1 1.1
2014-Jul-21 11:32N 39°15' W 076°33'0 0.0
2014-Jul-21 10:33N 39°15' W 076°33'0 0.0
2014-Jul-21 09:31N 39°15' W 076°33'0 0.0
2014-Jul-21 08:32N 39°15' W 076°33'0 0.0
2014-Jul-21 07:32N 39°15' W 076°33'0 0.0
2014-Jul-21 06:33N 39°15' W 076°33'0 0.0
2014-Jul-21 05:33N 39°15' W 076°33'0 0.0
2014-Jul-21 04:31N 39°15' W 076°33'0 0.0
2014-Jul-21 03:32N 39°15' W 076°33'0 0.0
2014-Jul-21 02:30N 39°15' W 076°33'0 0.0
2014-Jul-21 01:33N 39°15' W 076°33'0 0.0
2014-Jul-21 00:31N 39°15' W 076°33'0 0.0
2014-Jul-20 23:31N 39°15' W 076°33'0 0.0
2014-Jul-20 22:32N 39°15' W 076°33'0 0.0
2014-Jul-20 21:33N 39°15' W 076°33'0 0.0
2014-Jul-20 20:33N 39°15' W 076°33'0 0.0
2014-Jul-20 19:31N 39°15' W 076°33'0 0.0
2014-Jul-20 18:32N 39°15' W 076°33'0 0.0
2014-Jul-20 17:32N 39°15' W 076°33'0 0.0
2014-Jul-20 16:33N 39°15' W 076°33'0 0.0
2014-Jul-20 15:31N 39°15' W 076°33'0 0.0
2014-Jul-20 14:32N 39°15' W 076°33'0 0.0
2014-Jul-20 13:32N 39°15' W 076°33'0 0.0
2014-Jul-20 12:30N 39°15' W 076°33'0 0.0
2014-Jul-20 11:28N 39°15' W 076°33'0 0.0
2014-Jul-20 10:31N 39°15' W 076°33'0 0.0
2014-Jul-20 09:32N 39°15' W 076°33'0 0.0
2014-Jul-20 08:33N 39°15' W 076°33'0 0.0
2014-Jul-20 07:33N 39°15' W 076°33'0 0.0
2014-Jul-20 06:31N 39°15' W 076°33'0 0.0
2014-Jul-20 05:32N 39°15' W 076°33'0 0.0
2014-Jul-20 04:32N 39°15' W 076°33'0 0.0
2014-Jul-20 03:33N 39°15' W 076°33'0 0.0
2014-Jul-20 02:34N 39°15' W 076°33'0 0.0
2014-Jul-20 01:32N 39°15' W 076°33'0 0.0
2014-Jul-20 00:32N 39°15' W 076°33'0 0.4
2014-Jul-19 23:33N 39°15' W 076°33'8 8.0
2014-Jul-19 22:33N 39°11' W 076°24'3 0.0
2014-Jul-17 19:23N 39°13' W 076°22'6 7.3
2014-Jul-17 18:33N 39°12' W 076°29'5 5.3
2014-Jul-17 17:32N 39°15' W 076°34'0 0.0
2014-Jul-17 16:33N 39°15' W 076°34'0 0.0
2014-Jul-17 15:31N 39°15' W 076°34'0 0.0
2014-Jul-17 14:31N 39°15' W 076°34'0 0.0
2014-Jul-17 13:32N 39°15' W 076°34'0 0.0
2014-Jul-17 12:33N 39°15' W 076°34'0 0.0
2014-Jul-17 11:33N 39°15' W 076°34'0 0.0
2014-Jul-17 10:31N 39°15' W 076°34'0 0.0
2014-Jul-17 09:32N 39°15' W 076°34'0 0.0
2014-Jul-17 08:32N 39°15' W 076°34'1 0.6
2014-Jul-17 07:34N 39°15' W 076°34'0 0.4
2014-Jul-17 06:32N 39°15' W 076°33'0 0.0
2014-Jul-17 05:32N 39°15' W 076°33'0 0.0
2014-Jul-17 04:33N 39°15' W 076°33'0 0.0
2014-Jul-17 03:31N 39°15' W 076°33'0 0.0
2014-Jul-17 02:31N 39°15' W 076°33'0 0.0
2014-Jul-17 01:32N 39°15' W 076°33'0 0.0
2014-Jul-17 00:33N 39°15' W 076°33'0 0.0
2014-Jul-16 23:33N 39°15' W 076°33'1 1.1
2014-Jul-16 22:33N 39°15' W 076°34'0 0.0
2014-Jul-16 21:21N 39°15' W 076°34'0 0.0
2014-Jul-16 20:16N 39°15' W 076°34'0 0.1
2014-Jul-16 19:33N 39°15' W 076°34'0 0.0
2014-Jul-16 18:31N 39°15' W 076°34'0 0.0
2014-Jul-16 17:28N 39°15' W 076°34'1 0.3
2014-Jul-16 13:31N 39°15' W 076°33'7 7.4
2014-Jul-16 12:34N 39°11' W 076°26'66 8.0
2014-Jul-16 04:19N 39°51' W 075°18'23 1.2
2014-Jul-15 09:25N 40°04' W 074°54'83 3.5
2014-Jul-14 10:08N 39°12' W 076°16'13 8.0
2014-Jul-14 08:33N 38°60' W 076°23'83 7.3
2014-Jul-13 21:14N 37°38' W 076°10'28 2.6
2014-Jul-13 10:32N 37°14' W 076°29'1 0.3
2014-Jul-13 07:31N 37°14' W 076°28'  

Dump ship's entire track history